createdAt,value
2018-06-05T00:01:07.422Z,21.60
2018-06-05T00:03:35.594Z,21.60
2018-06-05T00:06:03.815Z,21.50
2018-06-05T00:08:32.045Z,21.50
2018-06-05T00:11:00.215Z,21.50
2018-06-05T00:13:28.366Z,21.50
2018-06-05T00:15:56.582Z,21.50
2018-06-05T00:18:24.866Z,21.50
2018-06-05T00:20:52.993Z,21.40
2018-06-05T00:23:21.289Z,21.40
2018-06-05T00:25:49.526Z,21.40
2018-06-05T00:28:17.757Z,21.40
2018-06-05T00:30:45.973Z,21.40
2018-06-05T00:33:14.212Z,21.30
2018-06-05T00:35:42.483Z,21.40
2018-06-05T00:38:10.674Z,21.20
2018-06-05T00:40:38.999Z,21.20
2018-06-05T00:43:07.238Z,21.20
2018-06-05T00:45:35.530Z,21.10
2018-06-05T00:48:03.808Z,21.20
2018-06-05T00:50:31.966Z,21.20
2018-06-05T00:53:00.191Z,21.10
2018-06-05T00:55:28.391Z,21.10
2018-06-05T00:57:56.671Z,21.10
2018-06-05T01:00:24.887Z,21.00
2018-06-05T01:02:53.065Z,21.10
2018-06-05T01:07:49.002Z,21.10
2018-06-05T01:12:45.004Z,21.10
2018-06-05T01:15:13.214Z,21.10
2018-06-05T01:17:41.469Z,21.10
2018-06-05T01:20:09.690Z,21.10
2018-06-05T01:22:37.902Z,21.00
2018-06-05T01:25:06.419Z,21.00
2018-06-05T01:27:34.586Z,21.00
2018-06-05T01:30:03.497Z,21.00
2018-06-05T01:32:31.728Z,20.90
2018-06-05T01:34:59.918Z,20.90
2018-06-05T01:37:28.105Z,20.90
2018-06-05T01:39:56.332Z,20.80
2018-06-05T01:42:24.599Z,20.80
2018-06-05T01:44:52.838Z,20.80
2018-06-05T01:47:21.165Z,20.70
2018-06-05T01:49:49.558Z,20.60
2018-06-05T01:52:17.736Z,20.50
2018-06-05T01:54:45.990Z,20.60
2018-06-05T01:57:14.262Z,20.50
2018-06-05T01:59:42.510Z,20.60
2018-06-05T02:02:10.790Z,20.50
2018-06-05T02:04:39.113Z,20.60
2018-06-05T02:07:07.367Z,20.60
2018-06-05T02:09:35.575Z,20.60
2018-06-05T02:12:03.843Z,20.60
2018-06-05T02:14:32.099Z,20.60
2018-06-05T02:17:00.339Z,20.50
2018-06-05T02:19:28.590Z,20.40
2018-06-05T02:21:56.817Z,20.50
2018-06-05T02:24:25.065Z,20.50
2018-06-05T02:26:53.319Z,20.40
2018-06-05T02:29:21.615Z,20.40
2018-06-05T02:31:49.875Z,20.30
2018-06-05T02:34:18.123Z,20.40
2018-06-05T02:36:46.398Z,20.40
2018-06-05T02:39:14.619Z,20.40
2018-06-05T02:41:42.906Z,20.50
2018-06-05T02:44:11.138Z,20.50
2018-06-05T02:46:39.417Z,20.40
2018-06-05T02:49:07.646Z,20.30
2018-06-05T02:51:35.826Z,20.30
2018-06-05T02:54:03.978Z,20.20
2018-06-05T02:56:32.203Z,20.20
2018-06-05T02:59:00.461Z,20.20
2018-06-05T03:01:28.790Z,20.10
2018-06-05T03:06:24.681Z,20.20
2018-06-05T03:08:52.912Z,20.20
2018-06-05T03:11:21.062Z,20.10
2018-06-05T03:13:49.297Z,20.20
2018-06-05T03:16:17.449Z,20.10
2018-06-05T03:18:45.662Z,20.10
2018-06-05T03:21:13.815Z,20.00
2018-06-05T03:23:41.987Z,19.80
2018-06-05T03:26:10.214Z,19.80
2018-06-05T03:28:38.379Z,19.90
2018-06-05T03:31:06.588Z,20.00
2018-06-05T03:33:34.770Z,19.90
2018-06-05T03:36:03.056Z,19.80
2018-06-05T03:38:31.352Z,19.70
2018-06-05T03:40:59.492Z,19.70
2018-06-05T03:43:27.686Z,19.70
2018-06-05T03:45:55.980Z,19.80
2018-06-05T03:48:24.146Z,19.80
2018-06-05T03:50:52.400Z,19.90
2018-06-05T03:53:20.644Z,19.80
2018-06-05T03:55:50.090Z,19.80
2018-06-05T03:58:18.279Z,19.90
2018-06-05T04:00:46.467Z,19.90
2018-06-05T04:03:14.705Z,19.90
2018-06-05T04:05:42.924Z,19.90
2018-06-05T04:08:11.162Z,20.00
2018-06-05T04:10:39.418Z,19.90
2018-06-05T04:13:07.706Z,19.90
2018-06-05T04:15:35.982Z,19.90
2018-06-05T04:18:04.326Z,19.90
2018-06-05T04:20:32.614Z,19.90
2018-06-05T04:23:00.886Z,19.90
2018-06-05T04:25:29.093Z,19.90
2018-06-05T04:27:57.290Z,19.90
2018-06-05T04:30:25.466Z,19.90
2018-06-05T04:32:53.703Z,19.90
2018-06-05T04:35:21.974Z,19.90
2018-06-05T04:37:50.214Z,19.90
2018-06-05T04:40:18.432Z,19.90
2018-06-05T04:42:46.696Z,19.80
2018-06-05T04:45:14.972Z,19.70
2018-06-05T04:47:43.185Z,19.70
2018-06-05T04:50:11.381Z,19.80
2018-06-05T04:52:39.651Z,19.70
2018-06-05T04:55:07.927Z,19.70
2018-06-05T04:57:36.152Z,19.80
2018-06-05T05:00:04.475Z,19.80
2018-06-05T05:02:32.658Z,19.80
2018-06-05T05:05:00.950Z,19.90
2018-06-05T05:07:29.212Z,19.90
2018-06-05T05:09:57.307Z,19.90
2018-06-05T05:12:25.410Z,19.90
2018-06-05T05:14:53.508Z,19.80
2018-06-05T05:17:21.605Z,19.90
2018-06-05T05:19:49.646Z,20.00
2018-06-05T05:22:17.738Z,20.00
2018-06-05T05:24:45.809Z,20.00
2018-06-05T05:27:13.877Z,20.10
2018-06-05T05:29:41.946Z,20.10
2018-06-05T05:32:10.001Z,20.10
2018-06-05T05:34:38.087Z,20.20
2018-06-05T05:37:06.197Z,20.30
2018-06-05T05:39:34.258Z,20.30
2018-06-05T05:42:02.375Z,20.40
2018-06-05T05:44:30.432Z,20.40
2018-06-05T05:46:58.519Z,20.50
2018-06-05T05:49:26.598Z,20.50
2018-06-05T05:51:54.661Z,20.60
2018-06-05T05:54:22.770Z,20.70
2018-06-05T05:56:50.806Z,20.70
2018-06-05T05:59:18.900Z,20.80
2018-06-05T06:01:46.981Z,20.90
2018-06-05T06:04:15.025Z,21.10
2018-06-05T06:06:43.102Z,21.30
2018-06-05T06:09:11.213Z,21.30
2018-06-05T06:11:39.283Z,21.40
2018-06-05T06:14:07.449Z,21.60
2018-06-05T06:16:35.515Z,21.70
2018-06-05T06:19:03.637Z,21.90
2018-06-05T06:21:31.729Z,22.10
2018-06-05T06:23:59.843Z,22.10
2018-06-05T06:26:27.913Z,22.10
2018-06-05T06:28:55.968Z,22.20
2018-06-05T06:31:24.039Z,22.40
2018-06-05T06:33:52.096Z,22.70
2018-06-05T06:36:20.201Z,22.90
2018-06-05T06:38:48.285Z,23.20
2018-06-05T06:41:16.357Z,23.40
2018-06-05T06:43:44.474Z,23.50
2018-06-05T06:46:12.542Z,23.70
2018-06-05T06:48:47.225Z,23.90
2018-06-05T06:51:15.311Z,24.20
2018-06-05T06:53:43.377Z,24.10
2018-06-05T06:56:11.465Z,24.40
2018-06-05T06:58:39.518Z,24.40
2018-06-05T07:01:07.630Z,24.30
2018-06-05T07:03:35.738Z,24.40
2018-06-05T07:06:04.886Z,24.70
2018-06-05T07:08:32.990Z,25.10
2018-06-05T07:11:01.383Z,25.20
2018-06-05T07:13:29.472Z,25.70
2018-06-05T07:15:57.521Z,25.80
2018-06-05T07:18:25.596Z,25.90
2018-06-05T07:20:53.637Z,26.10
2018-06-05T07:23:21.740Z,26.20
2018-06-05T07:25:49.816Z,26.40
2018-06-05T07:28:17.862Z,26.60
2018-06-05T07:30:45.950Z,26.90
2018-06-05T07:33:14.059Z,27.10
2018-06-05T07:35:42.182Z,26.80
2018-06-05T07:38:10.228Z,26.90
2018-06-05T07:40:38.498Z,26.70
2018-06-05T07:43:06.573Z,27.30
2018-06-05T07:45:34.685Z,27.50
2018-06-05T07:48:02.783Z,27.20
2018-06-05T07:50:30.821Z,27.60
2018-06-05T07:52:58.891Z,27.60
2018-06-05T07:55:27.048Z,27.90
2018-06-05T07:57:55.124Z,27.90
2018-06-05T08:00:23.247Z,28.10
2018-06-05T08:02:51.408Z,28.20
2018-06-05T08:05:19.538Z,27.90
2018-06-05T08:07:47.578Z,28.00
2018-06-05T08:10:15.645Z,28.30
2018-06-05T08:12:43.765Z,28.30
2018-06-05T08:15:11.891Z,28.60
2018-06-05T08:17:39.973Z,28.50
2018-06-05T08:20:08.037Z,29.00
2018-06-05T08:22:52.901Z,29.10
2018-06-05T08:25:21.045Z,29.30
2018-06-05T08:27:49.149Z,29.30
2018-06-05T08:30:17.241Z,29.10
2018-06-05T08:32:45.300Z,28.90
2018-06-05T08:35:13.420Z,29.50
2018-06-05T08:37:41.543Z,29.30
2018-06-05T08:40:09.590Z,29.00
2018-06-05T08:42:37.719Z,29.10
2018-06-05T08:45:05.817Z,29.50
2018-06-05T08:47:33.980Z,29.30
2018-06-05T08:50:02.093Z,29.70
2018-06-05T08:52:30.146Z,29.80
2018-06-05T08:54:58.209Z,30.20
2018-06-05T08:57:26.244Z,30.20
2018-06-05T08:59:54.364Z,29.70
2018-06-05T09:02:22.948Z,30.20
2018-06-05T09:04:50.997Z,30.90
2018-06-05T09:07:19.073Z,31.00
2018-06-05T09:09:47.288Z,31.10
2018-06-05T09:12:15.896Z,31.10
2018-06-05T09:14:44.019Z,31.10
2018-06-05T09:17:12.072Z,31.20
2018-06-05T09:19:40.130Z,31.50
2018-06-05T09:22:08.194Z,31.60
2018-06-05T09:24:36.298Z,31.50
2018-06-05T09:27:04.437Z,32.00
2018-06-05T09:29:32.486Z,31.80
2018-06-05T09:32:00.549Z,31.70
2018-06-05T09:36:56.221Z,31.90
2018-06-05T09:39:24.285Z,31.60
2018-06-05T09:41:52.350Z,31.60
2018-06-05T09:44:20.445Z,32.40
2018-06-05T09:46:48.493Z,32.40
2018-06-05T09:49:16.605Z,32.80
2018-06-05T09:51:44.678Z,33.30
2018-06-05T09:54:12.717Z,32.50
2018-06-05T09:56:54.419Z,32.70
2018-06-05T09:59:22.489Z,32.60
2018-06-05T10:01:50.571Z,32.60
2018-06-05T10:04:18.713Z,33.00
2018-06-05T10:06:46.789Z,33.30
2018-06-05T10:09:14.895Z,32.70
2018-06-05T10:11:42.933Z,32.60
2018-06-05T10:14:11.029Z,33.00
2018-06-05T10:16:39.084Z,33.40
2018-06-05T10:19:07.181Z,33.40
2018-06-05T10:21:35.268Z,32.90
2018-06-05T10:24:03.326Z,33.30
2018-06-05T10:26:31.450Z,33.50
2018-06-05T10:28:59.509Z,33.40
2018-06-05T10:31:33.040Z,33.50
2018-06-05T10:34:01.145Z,33.50
2018-06-05T10:36:29.201Z,33.50
2018-06-05T10:38:57.281Z,33.20
2018-06-05T10:41:25.421Z,33.50
2018-06-05T10:43:53.976Z,33.30
2018-06-05T10:46:28.378Z,34.00
2018-06-05T10:49:02.033Z,34.60
2018-06-05T10:51:30.760Z,34.60
2018-06-05T10:54:00.958Z,34.20
2018-06-05T10:56:29.065Z,34.30
2018-06-05T10:58:57.109Z,34.50
2018-06-05T11:01:25.199Z,34.10
2018-06-05T11:03:53.290Z,34.50
2018-06-05T11:06:21.457Z,34.90
2018-06-05T11:08:49.618Z,35.30
2018-06-05T11:11:17.936Z,35.20
2018-06-05T11:13:47.215Z,35.40
2018-06-05T11:16:15.347Z,35.20
2018-06-05T11:18:48.863Z,35.80
2018-06-05T11:21:16.975Z,35.70
2018-06-05T11:23:45.147Z,36.00
2018-06-05T11:26:13.265Z,36.50
2018-06-05T11:28:44.171Z,36.30
2018-06-05T11:31:12.345Z,36.40
2018-06-05T11:33:40.461Z,36.60
2018-06-05T11:36:08.543Z,36.00
2018-06-05T11:38:36.635Z,36.10
2018-06-05T11:41:11.086Z,36.20
2018-06-05T11:43:40.519Z,36.50
2018-06-05T11:46:11.984Z,35.80
2018-06-05T11:48:40.286Z,36.10
2018-06-05T11:51:08.426Z,36.80
2018-06-05T11:56:10.882Z,36.00
2018-06-05T11:58:38.918Z,35.60
2018-06-05T12:01:12.517Z,35.90
2018-06-05T12:03:40.648Z,35.90
2018-06-05T12:06:08.691Z,36.60
2018-06-05T12:08:36.797Z,36.90
2018-06-05T12:11:04.893Z,37.00
2018-06-05T12:13:32.960Z,36.60
2018-06-05T12:16:01.030Z,36.10
2018-06-05T12:18:29.115Z,36.60
2018-06-05T12:20:57.184Z,36.40
2018-06-05T12:23:25.276Z,36.40
2018-06-05T12:25:53.442Z,36.20
2018-06-05T12:28:21.541Z,36.20
2018-06-05T12:30:49.641Z,36.10
2018-06-05T12:33:17.657Z,36.70
2018-06-05T12:35:45.713Z,35.90
2018-06-05T12:38:13.794Z,36.30
2018-06-05T12:40:41.805Z,36.40
2018-06-05T12:43:10.190Z,36.60
2018-06-05T12:45:38.209Z,36.50
2018-06-05T12:48:06.317Z,36.10
2018-06-05T12:50:35.462Z,35.80
2018-06-05T12:53:03.647Z,35.80
2018-06-05T12:55:31.881Z,36.30
2018-06-05T12:58:01.055Z,36.60
2018-06-05T13:00:29.474Z,36.10
2018-06-05T13:02:57.795Z,36.10
2018-06-05T13:05:26.122Z,36.90
2018-06-05T13:07:54.594Z,36.90
2018-06-05T13:10:22.894Z,36.90
2018-06-05T13:12:51.189Z,37.50
2018-06-05T13:15:19.499Z,36.90
2018-06-05T13:17:53.263Z,36.10
2018-06-05T13:20:21.507Z,36.20
2018-06-05T13:22:55.149Z,36.40
2018-06-05T13:25:23.259Z,36.60
2018-06-05T13:27:51.548Z,36.10
2018-06-05T13:30:19.812Z,36.10
2018-06-05T13:32:48.042Z,35.90
2018-06-05T13:35:16.225Z,36.50
2018-06-05T13:37:44.623Z,36.80
2018-06-05T13:40:12.912Z,36.70
2018-06-05T13:42:41.117Z,36.30
2018-06-05T13:45:09.415Z,37.00
2018-06-05T13:47:37.655Z,37.10
2018-06-05T13:50:06.095Z,36.80
2018-06-05T13:52:34.351Z,37.00
2018-06-05T13:55:02.678Z,37.40
2018-06-05T13:57:30.881Z,36.60
2018-06-05T13:59:59.150Z,36.50
2018-06-05T14:02:27.345Z,36.40
2018-06-05T14:04:55.491Z,36.70
2018-06-05T14:07:23.735Z,36.40
2018-06-05T14:09:51.918Z,36.50
2018-06-05T14:12:25.463Z,37.30
2018-06-05T14:14:53.635Z,37.40
2018-06-05T14:17:21.841Z,37.10
2018-06-05T14:19:50.172Z,36.80
2018-06-05T14:22:18.386Z,36.60
2018-06-05T14:24:46.579Z,36.90
2018-06-05T14:27:14.770Z,36.60
2018-06-05T14:29:44.602Z,36.90
2018-06-05T14:32:13.054Z,37.00
2018-06-05T14:34:41.281Z,36.50
2018-06-05T14:37:09.461Z,36.50
2018-06-05T14:39:37.702Z,37.20
2018-06-05T14:42:05.938Z,37.10
2018-06-05T14:44:34.142Z,36.80
2018-06-05T14:47:02.355Z,37.10
2018-06-05T14:49:30.579Z,36.50
2018-06-05T14:51:58.866Z,36.30
2018-06-05T14:54:27.091Z,36.50
2018-06-05T14:56:55.293Z,36.70
2018-06-05T14:59:23.498Z,36.20
2018-06-05T15:01:51.770Z,35.90
2018-06-05T15:04:19.975Z,36.20
2018-06-05T15:06:48.134Z,35.80
2018-06-05T15:09:16.346Z,35.10
2018-06-05T15:11:44.569Z,35.10
2018-06-05T15:14:12.845Z,35.50
2018-06-05T15:16:41.034Z,34.90
2018-06-05T15:19:09.232Z,35.10
2018-06-05T15:24:05.334Z,35.30
2018-06-05T15:26:33.691Z,35.30
2018-06-05T15:29:01.880Z,35.40
2018-06-05T15:31:30.075Z,35.30
2018-06-05T15:33:58.299Z,34.90
2018-06-05T15:36:26.543Z,34.90
2018-06-05T15:38:54.779Z,35.10
2018-06-05T15:41:23.084Z,35.40
2018-06-05T15:43:51.728Z,35.50
2018-06-05T15:46:20.039Z,35.50
2018-06-05T15:48:48.264Z,35.60
2018-06-05T15:51:16.522Z,35.20
2018-06-05T15:53:44.728Z,35.30
2018-06-05T15:56:12.950Z,35.30
2018-06-05T15:58:41.290Z,35.50
2018-06-05T16:01:09.493Z,35.10
2018-06-05T16:03:37.658Z,35.00
2018-06-05T16:06:05.971Z,35.10
2018-06-05T16:08:34.259Z,34.60
2018-06-05T16:11:02.505Z,34.50
2018-06-05T16:13:30.786Z,34.10
2018-06-05T16:15:59.090Z,34.50
2018-06-05T16:18:27.291Z,35.30
2018-06-05T16:20:55.461Z,35.10
2018-06-05T16:23:23.698Z,34.50
2018-06-05T16:25:51.937Z,34.50
2018-06-05T16:28:20.255Z,34.10
2018-06-05T16:30:48.487Z,34.20
2018-06-05T16:33:16.715Z,34.10
2018-06-05T16:35:44.960Z,33.80
2018-06-05T16:38:13.188Z,33.80
2018-06-05T16:40:41.486Z,33.80
2018-06-05T16:43:09.682Z,34.00
2018-06-05T16:45:37.890Z,34.30
2018-06-05T16:48:06.124Z,34.70
2018-06-05T16:50:34.331Z,34.50
2018-06-05T16:53:02.643Z,34.00
2018-06-05T16:55:30.862Z,34.10
2018-06-05T16:57:59.066Z,34.50
2018-06-05T17:00:27.329Z,34.60
2018-06-05T17:02:55.513Z,34.80
2018-06-05T17:05:23.832Z,34.80
2018-06-05T17:07:52.103Z,34.50
2018-06-05T17:10:21.376Z,35.10
2018-06-05T17:12:49.645Z,34.90
2018-06-05T17:15:17.985Z,35.00
2018-06-05T17:17:46.286Z,35.30
2018-06-05T17:20:17.319Z,35.80
2018-06-05T17:22:45.487Z,36.10
2018-06-05T17:27:41.493Z,36.10
2018-06-05T17:30:09.787Z,35.80
2018-06-05T17:32:38.118Z,35.70
2018-06-05T17:35:06.437Z,35.10
2018-06-05T17:37:34.730Z,34.30
2018-06-05T17:40:02.959Z,34.00
2018-06-05T17:42:31.464Z,33.90
2018-06-05T17:44:59.619Z,33.70
2018-06-05T17:47:27.867Z,33.20
2018-06-05T17:49:56.115Z,33.00
2018-06-05T17:52:24.290Z,32.60
2018-06-05T17:54:52.523Z,32.20
2018-06-05T17:57:20.700Z,31.60
2018-06-05T17:59:48.922Z,31.40
2018-06-05T18:02:17.199Z,31.20
2018-06-05T18:07:13.306Z,30.60
2018-06-05T18:09:41.593Z,30.40
2018-06-05T18:12:09.836Z,30.50
2018-06-05T18:14:38.115Z,30.10
2018-06-05T18:17:06.260Z,30.00
2018-06-05T18:19:34.434Z,29.80
2018-06-05T18:22:02.667Z,29.70
2018-06-05T18:24:30.900Z,29.50
2018-06-05T18:26:59.081Z,29.40
2018-06-05T18:29:27.350Z,29.40
2018-06-05T18:31:55.602Z,29.10
2018-06-05T18:34:24.127Z,29.20
2018-06-05T18:36:52.365Z,29.10
2018-06-05T18:39:20.602Z,29.10
2018-06-05T18:41:48.890Z,28.80
2018-06-05T18:44:17.277Z,28.60
2018-06-05T18:46:45.495Z,28.50
2018-06-05T18:49:13.847Z,28.30
2018-06-05T18:51:42.082Z,28.00
2018-06-05T18:54:10.289Z,28.10
2018-06-05T18:56:38.563Z,28.10
2018-06-05T18:59:06.843Z,28.00
2018-06-05T19:01:37.073Z,28.10
2018-06-05T19:04:05.365Z,28.00
2018-06-05T19:06:33.531Z,28.00
2018-06-05T19:09:01.708Z,27.90
2018-06-05T19:11:29.889Z,27.60
2018-06-05T19:13:58.176Z,27.70
2018-06-05T19:16:26.359Z,27.70
2018-06-05T19:18:54.587Z,27.30
2018-06-05T19:21:22.770Z,27.30
2018-06-05T19:23:50.974Z,27.20
2018-06-05T19:26:19.208Z,27.10
2018-06-05T19:28:47.487Z,27.10
2018-06-05T19:31:15.689Z,26.80
2018-06-05T19:33:43.870Z,26.80
2018-06-05T19:36:12.022Z,26.70
2018-06-05T19:38:40.249Z,26.50
2018-06-05T19:41:08.553Z,26.50
2018-06-05T19:43:36.751Z,26.20
2018-06-05T19:46:05.016Z,26.20
2018-06-05T19:48:33.180Z,25.90
2018-06-05T19:51:01.392Z,25.90
2018-06-05T19:53:29.671Z,25.90
2018-06-05T19:56:01.279Z,25.80
2018-06-05T19:58:29.550Z,25.70
2018-06-05T20:00:57.726Z,25.70
2018-06-05T20:03:25.929Z,25.70
2018-06-05T20:05:54.140Z,25.50
2018-06-05T20:08:22.304Z,25.30
2018-06-05T20:10:50.551Z,25.30
2018-06-05T20:13:18.751Z,25.20
2018-06-05T20:15:46.926Z,25.10
2018-06-05T20:18:15.118Z,25.00
2018-06-05T20:20:43.347Z,25.00
2018-06-05T20:23:11.558Z,24.80
2018-06-05T20:25:39.749Z,24.70
2018-06-05T20:28:08.060Z,24.60
2018-06-05T20:30:36.204Z,24.40
2018-06-05T20:33:04.397Z,24.30
2018-06-05T20:35:32.626Z,24.40
2018-06-05T20:38:00.883Z,24.50
2018-06-05T20:40:29.149Z,24.40
2018-06-05T20:42:57.458Z,24.40
2018-06-05T20:45:25.674Z,24.30
2018-06-05T20:47:53.870Z,24.10
2018-06-05T20:50:22.028Z,24.10
2018-06-05T20:52:50.255Z,24.10
2018-06-05T20:55:18.471Z,24.00
2018-06-05T20:57:46.650Z,23.90
2018-06-05T21:00:14.797Z,23.90
2018-06-05T21:02:42.879Z,23.80
2018-06-05T21:05:10.998Z,23.80
2018-06-05T21:07:39.069Z,23.70
2018-06-05T21:10:07.206Z,23.50
2018-06-05T21:12:35.281Z,23.40
2018-06-05T21:15:03.346Z,23.40
2018-06-05T21:17:31.419Z,23.30
2018-06-05T21:19:59.521Z,23.30
2018-06-05T21:22:27.590Z,23.20
2018-06-05T21:24:55.666Z,23.10
2018-06-05T21:29:51.329Z,22.90
2018-06-05T21:32:19.369Z,22.90
2018-06-05T21:34:47.438Z,22.80
2018-06-05T21:37:15.491Z,22.80
2018-06-05T21:39:43.533Z,22.60
2018-06-05T21:42:11.669Z,22.60
2018-06-05T21:44:39.785Z,22.70
2018-06-05T21:47:07.881Z,22.60
2018-06-05T21:49:35.951Z,22.60
2018-06-05T21:52:04.019Z,22.50
2018-06-05T21:54:38.529Z,22.40
2018-06-05T21:57:06.566Z,22.40
2018-06-05T21:59:34.639Z,22.40
2018-06-05T22:02:02.732Z,22.40
2018-06-05T22:04:30.800Z,22.20
2018-06-05T22:06:58.906Z,22.10
2018-06-05T22:09:26.935Z,22.10
2018-06-05T22:11:55.030Z,22.10
2018-06-05T22:14:23.106Z,22.10
2018-06-05T22:16:51.234Z,22.00
2018-06-05T22:19:19.310Z,21.90
2018-06-05T22:21:47.349Z,21.90
2018-06-05T22:24:15.437Z,21.80
2018-06-05T22:26:43.606Z,21.80
2018-06-05T22:29:11.828Z,21.80
2018-06-05T22:31:40.094Z,21.80
2018-06-05T22:34:08.325Z,21.60
2018-06-05T22:36:36.554Z,21.60
2018-06-05T22:39:06.233Z,21.60
2018-06-05T22:41:34.449Z,21.50
2018-06-05T22:44:02.723Z,21.50
2018-06-05T22:46:30.969Z,21.50
2018-06-05T22:48:59.242Z,21.40
2018-06-05T22:51:27.483Z,21.40
2018-06-05T22:53:55.755Z,21.20
2018-06-05T22:56:23.971Z,21.20
2018-06-05T22:58:52.191Z,21.10
2018-06-05T23:01:20.884Z,21.10
2018-06-05T23:03:49.046Z,20.90
2018-06-05T23:06:17.287Z,20.90
2018-06-05T23:08:45.595Z,20.80
2018-06-05T23:11:13.807Z,20.80
2018-06-05T23:13:42.047Z,20.60
2018-06-05T23:16:10.426Z,20.60
2018-06-05T23:18:38.668Z,20.60
2018-06-05T23:21:06.948Z,20.60
2018-06-05T23:23:35.176Z,20.60
2018-06-05T23:28:31.144Z,20.50
2018-06-05T23:30:59.305Z,20.40
2018-06-05T23:33:27.583Z,20.40
2018-06-05T23:35:55.791Z,20.20
2018-06-05T23:38:24.027Z,20.20
2018-06-05T23:40:52.599Z,20.20
2018-06-05T23:43:20.864Z,20.10
2018-06-05T23:45:49.138Z,20.10
2018-06-05T23:48:17.409Z,20.00
2018-06-05T23:50:45.680Z,20.10
2018-06-05T23:53:13.919Z,20.10
2018-06-05T23:55:42.111Z,20.10
2018-06-05T23:58:10.408Z,19.90
